Time;durP1;ratioP1;P1;durP2;ratioP2;P2;SDS_P1;SDS_P2;PMS_P1;PMS_P2;Temp;Humidity;BMP_temperature;BMP_pressure;BME280_temperature;BME280_humidity;BME280_pressure;Samples;Min_cycle;Max_cycle;Signal;HPM_P1;HPM_P2
2023/06/24 00:04:41;;;;;;;11.90;8.77;;;;;17.40;101979.00;;;;10361861;28;20209;-76
2023/06/24 00:09:43;;;;;;;11.93;8.50;;;;;17.30;101977.00;;;;10399565;28;20363;-77
2023/06/24 00:14:46;;;;;;;15.65;9.18;;;;;17.30;101974.00;;;;10397345;28;20892;-76
2023/06/24 00:19:47;;;;;;;13.85;9.00;;;;;17.20;101963.00;;;;10377253;28;20209;-77
2023/06/24 00:24:50;;;;;;;9.20;7.88;;;;;17.00;101969.00;;;;10397877;28;20219;-76
2023/06/24 00:29:51;;;;;;;14.02;8.10;;;;;17.00;101982.00;;;;10380274;28;20225;-76
2023/06/24 00:34:52;;;;;;;15.65;8.05;;;;;16.90;101979.00;;;;10395809;28;20461;-77
2023/06/24 00:39:54;;;;;;;13.38;7.97;;;;;16.80;101969.00;;;;10406966;28;22150;-78
2023/06/24 00:44:55;;;;;;;11.60;6.97;;;;;16.80;101976.00;;;;10402661;28;21238;-77
2023/06/24 00:49:57;;;;;;;8.95;7.07;;;;;16.70;101967.00;;;;10403942;28;20217;-79
2023/06/24 00:54:59;;;;;;;10.57;6.88;;;;;16.60;101964.00;;;;10398600;28;20219;-78
2023/06/24 01:00:00;;;;;;;10.48;6.30;;;;;16.60;101965.00;;;;10405164;28;20227;-79
2023/06/24 01:05:02;;;;;;;12.38;6.03;;;;;16.50;101971.00;;;;10380790;28;20307;-76
2023/06/24 01:10:06;;;;;;;7.47;5.10;;;;;16.50;101968.00;;;;10363460;28;20595;-76
2023/06/24 01:15:09;;;;;;;6.97;5.20;;;;;16.50;101963.00;;;;10369289;28;20240;-78
2023/06/24 01:20:33;;;;;;;5.40;4.90;;;;;16.40;101966.00;;;;10385713;28;20224;-78
2023/06/24 01:25:38;;;;;;;5.10;4.20;;;;;16.50;101968.00;;;;10380430;28;20298;-78
2023/06/24 01:31:28;;;;;;;7.55;4.30;;;;;16.50;101968.00;;;;10411007;28;20775;-80
2023/06/24 01:36:33;;;;;;;6.00;4.22;;;;;16.30;101960.00;;;;10410056;28;20209;-76
2023/06/24 01:41:41;;;;;;;7.53;4.03;;;;;16.10;101957.00;;;;10407789;28;20290;-79
2023/06/24 01:46:46;;;;;;;7.43;4.65;;;;;15.90;101954.00;;;;10388783;28;20328;-76
2023/06/24 01:51:48;;;;;;;10.80;5.45;;;;;15.80;101955.00;;;;10383010;28;20233;-76
2023/06/24 01:56:53;;;;;;;7.03;5.20;;;;;15.60;101949.00;;;;10403157;28;20212;-77
2023/06/24 02:01:56;;;;;;;7.05;5.18;;;;;15.50;101936.00;;;;10406085;28;20216;-78
2023/06/24 02:07:01;;;;;;;7.80;4.95;;;;;15.40;101934.00;;;;10387445;28;20208;-76
2023/06/24 02:12:03;;;;;;;6.53;5.07;;;;;15.30;101936.00;;;;10382760;28;20229;-78
2023/06/24 02:17:09;;;;;;;6.32;4.50;;;;;15.20;101926.00;;;;10402774;28;20435;-77
2023/06/24 02:22:12;;;;;;;5.32;4.13;;;;;15.10;101929.00;;;;10383247;28;21300;-77
2023/06/24 02:27:13;;;;;;;7.78;5.03;;;;;15.20;101928.00;;;;10387769;28;20209;-75
2023/06/24 02:32:15;;;;;;;6.97;4.88;;;;;15.20;101932.00;;;;10405023;28;20639;-76
2023/06/24 02:37:16;;;;;;;5.45;4.85;;;;;15.10;101931.00;;;;10401820;28;20566;-78
2023/06/24 02:42:18;;;;;;;7.32;5.07;;;;;15.10;101932.00;;;;10381521;28;20941;-76
2023/06/24 02:47:21;;;;;;;6.40;4.78;;;;;15.00;101931.00;;;;10385903;28;20523;-77
2023/06/24 02:52:22;;;;;;;8.50;4.75;;;;;15.00;101935.00;;;;10399760;28;20272;-77
2023/06/24 02:57:25;;;;;;;7.18;4.57;;;;;14.90;101940.00;;;;10403670;28;21402;-78
2023/06/24 03:02:46;;;;;;;5.25;4.28;;;;;14.80;101940.00;;;;10372058;28;20217;-78
2023/06/24 03:07:48;;;;;;;6.47;4.65;;;;;14.80;101942.00;;;;10403044;28;20205;-76
2023/06/24 03:12:50;;;;;;;8.05;4.72;;;;;14.70;101935.00;;;;10387935;28;20287;-76
2023/06/24 03:17:52;;;;;;;8.50;5.22;;;;;14.70;101942.00;;;;10387491;28;20270;-77
2023/06/24 03:22:56;;;;;;;9.98;5.22;;;;;14.70;101940.00;;;;10398845;28;20286;-76
2023/06/24 03:28:00;;;;;;;6.93;5.22;;;;;14.70;101947.00;;;;10385985;28;20304;-77
2023/06/24 03:33:03;;;;;;;5.88;5.22;;;;;14.60;101946.00;;;;10402437;28;20330;-77
2023/06/24 03:38:04;;;;;;;7.20;5.63;;;;;14.60;101945.00;;;;10389039;28;20216;-78
2023/06/24 03:43:07;;;;;;;7.45;5.45;;;;;14.60;101944.00;;;;10405299;28;20960;-79
2023/06/24 03:48:09;;;;;;;7.17;5.47;;;;;14.60;101948.00;;;;10386588;28;20900;-76
2023/06/24 03:53:10;;;;;;;6.57;5.13;;;;;14.70;101947.00;;;;10395932;28;20214;-75
2023/06/24 03:58:13;;;;;;;7.78;5.15;;;;;15.20;101953.00;;;;10396582;28;20303;-76
2023/06/24 04:03:18;;;;;;;8.02;5.28;;;;;15.50;101956.00;;;;10394870;28;21396;-76
2023/06/24 04:08:19;;;;;;;7.88;5.32;;;;;16.00;101953.00;;;;10400274;28;20215;-79
2023/06/24 04:13:20;;;;;;;5.80;4.53;;;;;16.30;101960.00;;;;10401136;28;20278;-77
2023/06/24 04:18:23;;;;;;;5.95;4.28;;;;;16.30;101958.00;;;;10371673;28;20670;-78
2023/06/24 04:23:24;;;;;;;6.10;4.57;;;;;16.20;101968.00;;;;10386598;28;21047;-77
2023/06/24 04:28:26;;;;;;;6.57;4.30;;;;;16.10;101965.00;;;;10391915;28;20998;-76
2023/06/24 04:33:28;;;;;;;6.25;5.00;;;;;16.10;101968.00;;;;10398433;28;20326;-78
2023/06/24 04:38:29;;;;;;;5.95;5.30;;;;;16.10;101968.00;;;;10377884;28;20888;-76
2023/06/24 04:43:35;;;;;;;7.45;4.68;;;;;16.20;101968.00;;;;10404387;28;20755;-78
2023/06/24 04:48:36;;;;;;;7.97;4.88;;;;;16.20;101971.00;;;;10369891;28;20216;-78
2023/06/24 04:53:38;;;;;;;8.20;4.32;;;;;16.40;101962.00;;;;10399570;28;20234;-76
2023/06/24 04:58:39;;;;;;;7.53;4.47;;;;;16.60;101974.00;;;;10396145;28;20235;-76
2023/06/24 05:03:40;;;;;;;7.72;4.70;;;;;17.00;101968.00;;;;10404331;28;20317;-78
2023/06/24 05:08:42;;;;;;;4.88;4.15;;;;;17.40;101956.00;;;;10408390;28;20209;-75
2023/06/24 05:13:43;;;;;;;6.68;4.22;;;;;17.90;101956.00;;;;10404083;28;20661;-77
2023/06/24 05:18:45;;;;;;;12.05;4.18;;;;;18.40;101950.00;;;;10386335;28;20366;-76
2023/06/24 05:23:46;;;;;;;9.63;4.03;;;;;18.90;101953.00;;;;10403907;28;20220;-78
2023/06/24 05:28:48;;;;;;;8.30;4.20;;;;;19.40;101954.00;;;;10409771;28;20212;-78
2023/06/24 05:33:49;;;;;;;4.28;3.20;;;;;19.80;101950.00;;;;10407327;28;20225;-77
2023/06/24 05:38:50;;;;;;;4.05;3.22;;;;;20.30;101953.00;;;;10390401;28;20308;-78
2023/06/24 05:44:09;;;;;;;4.80;3.35;;;;;20.90;101959.00;;;;10405152;28;20240;-77
2023/06/24 05:49:11;;;;;;;3.50;3.20;;;;;21.40;101959.00;;;;10388129;28;20216;-77
2023/06/24 05:54:12;;;;;;;4.85;3.13;;;;;21.80;101967.00;;;;10418170;28;21834;-76
2023/06/24 05:59:14;;;;;;;3.80;2.92;;;;;22.10;101968.00;;;;10422892;28;20298;-77
2023/06/24 06:04:15;;;;;;;3.58;2.83;;;;;22.60;101961.00;;;;10426389;28;20215;-78
2023/06/24 06:09:17;;;;;;;5.55;2.80;;;;;22.90;101969.00;;;;10422756;28;20212;-78
2023/06/24 06:14:18;;;;;;;5.57;3.00;;;;;23.30;101975.00;;;;10420993;28;20212;-77
2023/06/24 06:19:19;;;;;;;4.07;2.70;;;;;23.60;101974.00;;;;10421591;28;20287;-78
2023/06/24 06:24:21;;;;;;;3.63;3.30;;;;;23.70;101978.00;;;;10428476;28;21094;-78
2023/06/24 06:29:22;;;;;;;4.45;2.90;;;;;23.80;101987.00;;;;10409275;28;20211;-78
2023/06/24 06:34:24;;;;;;;5.40;2.88;;;;;24.20;101988.00;;;;10428762;28;20288;-78
2023/06/24 06:39:25;;;;;;;3.85;2.85;;;;;24.50;101986.00;;;;10376394;28;21281;-77
2023/06/24 06:44:26;;;;;;;4.10;3.53;;;;;24.50;101993.00;;;;10397899;28;20236;-80
2023/06/24 06:49:28;;;;;;;4.20;2.83;;;;;24.80;101988.00;;;;10408470;28;20230;-80
2023/06/24 06:54:29;;;;;;;4.75;3.53;;;;;25.20;101995.00;;;;10408795;28;20343;-77
2023/06/24 06:59:31;;;;;;;5.85;3.38;;;;;25.50;101996.00;;;;10409995;28;20225;-77
2023/06/24 07:04:33;;;;;;;2.97;2.70;;;;;26.10;101987.00;;;;10404424;28;20745;-76
2023/06/24 07:09:34;;;;;;;5.40;2.83;;;;;26.60;101995.00;;;;10401098;28;20960;-78
2023/06/24 07:14:35;;;;;;;4.95;2.75;;;;;26.90;101991.00;;;;10385798;28;20225;-79
2023/06/24 07:19:37;;;;;;;4.80;2.85;;;;;26.80;101989.00;;;;10406231;28;20734;-78
2023/06/24 07:24:38;;;;;;;6.43;2.67;;;;;27.00;101995.00;;;;10400857;28;20300;-77
2023/06/24 07:29:40;;;;;;;3.67;2.58;;;;;27.00;101991.00;;;;10403797;28;20224;-77
2023/06/24 07:34:42;;;;;;;5.35;2.45;;;;;27.10;101993.00;;;;10400802;28;20208;-77
2023/06/24 07:39:43;;;;;;;4.20;2.70;;;;;26.90;101994.00;;;;10403006;28;20235;-79
2023/06/24 07:44:46;;;;;;;5.40;2.55;;;;;27.00;101989.00;;;;10384195;28;20490;-78
2023/06/24 07:49:47;;;;;;;3.55;2.50;;;;;27.70;102001.00;;;;10394273;28;20225;-76
2023/06/24 07:54:48;;;;;;;3.63;2.47;;;;;28.10;101998.00;;;;10395112;28;20728;-77
2023/06/24 07:59:50;;;;;;;3.00;2.38;;;;;28.80;101993.00;;;;10408144;28;20212;-79
2023/06/24 08:04:52;;;;;;;3.47;2.65;;;;;28.90;101984.00;;;;10400046;28;20201;-78
2023/06/24 08:09:53;;;;;;;3.22;2.58;;;;;28.70;101974.00;;;;10406683;28;20343;-79
2023/06/24 08:14:55;;;;;;;3.88;2.55;;;;;28.40;101977.00;;;;10388930;28;20662;-78
2023/06/24 08:19:56;;;;;;;4.43;2.50;;;;;28.90;101971.00;;;;10413786;28;20741;-76
2023/06/24 08:24:58;;;;;;;5.25;2.35;;;;;29.60;101969.00;;;;10383720;28;20206;-79
2023/06/24 08:30:00;;;;;;;4.07;2.25;;;;;30.50;101967.00;;;;10395333;28;21344;-77
2023/06/24 08:35:01;;;;;;;4.35;2.38;;;;;30.70;101964.00;;;;10407057;28;20625;-78
2023/06/24 08:40:04;;;;;;;1.88;1.60;;;;;31.20;101972.00;;;;10404580;28;20710;-78
2023/06/24 08:45:06;;;;;;;6.90;1.90;;;;;31.80;101967.00;;;;10407651;28;20792;-79
2023/06/24 08:50:11;;;;;;;3.50;2.05;;;;;32.10;101966.00;;;;10410215;28;20263;-80
2023/06/24 08:55:17;;;;;;;2.70;2.22;;;;;32.10;101959.00;;;;10403194;28;20311;-78
2023/06/24 09:00:18;;;;;;;3.10;1.85;;;;;32.30;101964.00;;;;10403130;28;20193;-79
2023/06/24 09:05:20;;;;;;;3.30;1.60;;;;;32.70;101954.00;;;;10400307;28;20257;-78
2023/06/24 09:10:37;;;;;;;2.55;2.05;;;;;33.10;101959.00;;;;10394936;28;20224;-77
2023/06/24 09:15:39;;;;;;;5.15;1.90;;;;;33.40;101951.00;;;;10388406;28;20232;-78
2023/06/24 09:20:44;;;;;;;3.75;1.67;;;;;33.60;101950.00;;;;10404727;28;20649;-79
2023/06/24 09:25:56;;;;;;;1.58;1.48;;;;;33.60;101945.00;;;;10396856;28;20219;-77
2023/06/24 09:31:08;;;;;;;2.30;1.60;;;;;33.60;101946.00;;;;10397592;28;20390;-77
2023/06/24 09:36:20;;;;;;;2.25;1.75;;;;;33.70;101940.00;;;;10396734;28;20220;-79
2023/06/24 09:41:21;;;;;;;5.47;1.92;;;;;33.70;101930.00;;;;10398789;28;20227;-77
2023/06/24 09:46:22;;;;;;;2.55;1.60;;;;;33.90;101928.00;;;;10401170;28;20952;-79
2023/06/24 09:51:25;;;;;;;1.52;1.42;;;;;33.50;101925.00;;;;10407178;28;20251;-78
2023/06/24 09:56:27;;;;;;;2.35;1.55;;;;;33.90;101920.00;;;;10403644;28;20291;-77
2023/06/24 10:01:30;;;;;;;3.92;1.73;;;;;33.80;101922.00;;;;10405023;28;20739;-76
2023/06/24 10:06:32;;;;;;;1.92;1.40;;;;;33.70;101916.00;;;;10402685;28;20589;-76
2023/06/24 10:11:34;;;;;;;1.45;1.27;;;;;33.40;101915.00;;;;10400609;28;20418;-76
2023/06/24 10:16:35;;;;;;;1.70;1.60;;;;;34.00;101908.00;;;;10400197;28;20745;-78
2023/06/24 10:21:47;;;;;;;1.60;1.50;;;;;34.10;101916.00;;;;10402589;28;20215;-76
2023/06/24 10:26:48;;;;;;;2.60;1.70;;;;;34.00;101906.00;;;;10405528;28;20235;-80
2023/06/24 10:31:51;;;;;;;2.92;1.55;;;;;34.40;101899.00;;;;10388975;28;20590;-77
2023/06/24 10:37:18;;;;;;;1.35;1.25;;;;;34.50;101899.00;;;;10405126;28;20792;-80
2023/06/24 10:42:28;;;;;;;4.47;2.05;;;;;34.40;101888.00;;;;10413783;28;21291;-77
2023/06/24 10:47:30;;;;;;;1.77;1.52;;;;;34.20;101874.00;;;;10404790;28;20233;-77
2023/06/24 10:52:32;;;;;;;2.45;1.42;;;;;32.80;101874.00;;;;10404525;28;20217;-77
2023/06/24 10:57:34;;;;;;;2.63;1.92;;;;;33.20;101869.00;;;;10409852;28;21366;-82
2023/06/24 11:02:36;;;;;;;2.65;1.65;;;;;33.70;101860.00;;;;10407684;28;21381;-78
2023/06/24 11:07:38;;;;;;;2.35;2.03;;;;;33.90;101862.00;;;;10405459;28;20662;-78
2023/06/24 11:12:41;;;;;;;2.08;1.65;;;;;33.00;101870.00;;;;10405946;28;20301;-77
2023/06/24 11:17:42;;;;;;;3.03;2.15;;;;;33.70;101852.00;;;;10404889;28;20219;-76
2023/06/24 11:22:44;;;;;;;3.35;2.13;;;;;33.70;101864.00;;;;10402643;28;20205;-77
2023/06/24 11:27:46;;;;;;;5.00;2.35;;;;;33.60;101850.00;;;;10399883;28;20205;-79
2023/06/24 11:32:48;;;;;;;3.78;2.10;;;;;33.90;101849.00;;;;10404730;28;20225;-78
2023/06/24 11:37:49;;;;;;;4.25;2.17;;;;;34.70;101849.00;;;;10404719;28;20533;-78
2023/06/24 11:42:50;;;;;;;2.05;1.85;;;;;34.70;101844.00;;;;10385307;28;20262;-79
2023/06/24 11:47:52;;;;;;;2.63;2.40;;;;;34.20;101839.00;;;;10398844;28;20764;-77
2023/06/24 11:52:54;;;;;;;2.40;2.00;;;;;33.40;101844.00;;;;10387882;28;20221;-80
2023/06/24 11:58:06;;;;;;;3.33;1.83;;;;;34.00;101839.00;;;;10405100;28;20295;-78
2023/06/24 12:03:09;;;;;;;2.13;2.00;;;;;34.70;101827.00;;;;10404560;28;20964;-78
2023/06/24 12:08:15;;;;;;;4.32;1.83;;;;;35.40;101835.00;;;;10402100;28;20206;-77
2023/06/24 12:13:16;;;;;;;3.63;2.05;;;;;35.40;101825.00;;;;10382754;28;21326;-77
2023/06/24 12:18:17;;;;;;;2.13;1.90;;;;;34.80;101814.00;;;;10396525;28;20200;-78
2023/06/24 12:23:19;;;;;;;2.20;2.00;;;;;34.00;101817.00;;;;10399528;28;20209;-78
2023/06/24 12:28:20;;;;;;;3.70;2.08;;;;;34.10;101814.00;;;;10400481;28;20757;-77
2023/06/24 12:33:22;;;;;;;2.00;1.90;;;;;33.70;101807.00;;;;10400043;28;20434;-77
2023/06/24 12:38:24;;;;;;;2.03;1.83;;;;;33.80;101807.00;;;;10399720;28;20768;-78
2023/06/24 12:43:26;;;;;;;3.47;2.20;;;;;34.90;101804.00;;;;10406308;28;20211;-79
2023/06/24 12:48:27;;;;;;;2.45;2.17;;;;;34.00;101794.00;;;;10406919;28;20479;-80
2023/06/24 12:53:28;;;;;;;3.15;2.00;;;;;33.60;101794.00;;;;10382424;28;20225;-78
2023/06/24 12:58:29;;;;;;;3.00;2.80;;;;;33.20;101796.00;;;;10403061;28;20734;-77
2023/06/24 13:03:31;;;;;;;2.28;1.92;;;;;32.50;101792.00;;;;10402399;28;20208;-80
2023/06/24 13:08:32;;;;;;;6.30;2.40;;;;;32.90;101783.00;;;;10401928;28;20205;-78
2023/06/24 13:13:34;;;;;;;2.90;2.22;;;;;33.50;101780.00;;;;10368916;28;20703;-79
2023/06/24 13:18:35;;;;;;;3.10;2.08;;;;;32.70;101781.00;;;;10403059;28;20205;-79
2023/06/24 13:23:38;;;;;;;3.03;2.22;;;;;32.70;101766.00;;;;10406346;28;21566;-78
2023/06/24 13:28:39;;;;;;;3.22;2.05;;;;;32.30;101772.00;;;;10405755;28;20557;-79
2023/06/24 13:33:41;;;;;;;2.75;2.30;;;;;32.80;101770.00;;;;10404920;28;20391;-77
2023/06/24 13:38:42;;;;;;;3.95;2.13;;;;;33.70;101765.00;;;;10404041;28;20211;-78
2023/06/24 13:43:44;;;;;;;4.22;2.10;;;;;33.50;101755.00;;;;10406858;28;20211;-78
2023/06/24 13:48:45;;;;;;;2.13;1.90;;;;;34.10;101760.00;;;;10370561;28;20224;-78
2023/06/24 13:53:51;;;;;;;2.30;2.10;;;;;34.30;101750.00;;;;10406604;28;20628;-79
2023/06/24 13:58:53;;;;;;;2.10;1.90;;;;;33.20;101747.00;;;;10407687;28;20227;-79
2023/06/24 14:03:55;;;;;;;2.38;2.03;;;;;33.20;101748.00;;;;10407045;28;20253;-79
2023/06/24 14:08:57;;;;;;;2.40;2.10;;;;;33.00;101747.00;;;;10404058;28;20227;-76
2023/06/24 14:13:58;;;;;;;1.98;1.80;;;;;33.20;101740.00;;;;10404090;28;20348;-79
2023/06/24 14:18:59;;;;;;;2.42;2.20;;;;;33.60;101747.00;;;;10384843;28;20300;-80
2023/06/24 14:24:01;;;;;;;3.97;1.77;;;;;34.00;101732.00;;;;10404047;28;20209;-77
2023/06/24 14:29:17;;;;;;;2.10;2.00;;;;;33.50;101724.00;;;;10392228;28;20213;-80
2023/06/24 14:34:19;;;;;;;2.78;2.25;;;;;32.60;101724.00;;;;10405507;28;20233;-80
2023/06/24 14:39:20;;;;;;;2.05;1.70;;;;;31.90;101721.00;;;;10403862;28;21934;-79
2023/06/24 14:44:21;;;;;;;2.58;2.00;;;;;31.70;101713.00;;;;10383971;28;20942;-77
2023/06/24 14:49:23;;;;;;;2.10;1.90;;;;;32.10;101706.00;;;;10403863;28;20244;-77
2023/06/24 14:54:24;;;;;;;2.50;2.28;;;;;32.10;101699.00;;;;10408513;28;20225;-79
2023/06/24 14:59:25;;;;;;;2.65;1.80;;;;;31.40;101690.00;;;;10405476;28;20205;-77
2023/06/24 15:04:27;;;;;;;3.35;2.25;;;;;31.30;101681.00;;;;10400389;28;20213;-78
2023/06/24 15:09:28;;;;;;;2.33;1.95;;;;;31.30;101682.00;;;;10399480;28;20207;-77
2023/06/24 15:14:29;;;;;;;2.50;2.30;;;;;31.40;101677.00;;;;10392384;28;20224;-77
2023/06/24 15:19:30;;;;;;;1.92;1.77;;;;;31.30;101670.00;;;;10391773;28;20224;-79
2023/06/24 15:24:32;;;;;;;2.33;2.03;;;;;31.20;101669.00;;;;10406805;28;20205;-77
2023/06/24 15:29:33;;;;;;;2.65;1.98;;;;;31.80;101666.00;;;;10402203;28;20201;-77
2023/06/24 15:34:36;;;;;;;4.05;2.45;;;;;31.60;101662.00;;;;10399873;28;20217;-78
2023/06/24 15:39:37;;;;;;;2.65;2.13;;;;;31.10;101667.00;;;;10401802;28;20531;-79
2023/06/24 15:44:38;;;;;;;4.13;2.10;;;;;30.70;101660.00;;;;10378090;28;20209;-78
2023/06/24 15:49:40;;;;;;;2.35;2.15;;;;;30.10;101661.00;;;;10399455;28;20899;-80
2023/06/24 15:54:41;;;;;;;2.38;2.03;;;;;29.50;101658.00;;;;10400085;28;20253;-78
2023/06/24 15:59:42;;;;;;;3.78;2.03;;;;;29.40;101654.00;;;;10375207;28;20243;-78
2023/06/24 16:04:44;;;;;;;2.63;2.20;;;;;29.40;101644.00;;;;10409987;28;21482;-78
2023/06/24 16:09:45;;;;;;;4.15;2.40;;;;;29.30;101640.00;;;;10403963;28;20653;-77
2023/06/24 16:14:46;;;;;;;3.30;2.03;;;;;29.10;101639.00;;;;10400081;28;20749;-79
2023/06/24 16:19:48;;;;;;;2.40;2.17;;;;;29.00;101633.00;;;;10398555;28;21682;-79
2023/06/24 16:24:49;;;;;;;2.28;1.95;;;;;28.50;101629.00;;;;10395346;28;22444;-78
2023/06/24 16:29:51;;;;;;;4.93;2.80;;;;;28.40;101626.00;;;;10419320;28;20286;-79
2023/06/24 16:34:52;;;;;;;2.40;2.17;;;;;28.50;101628.00;;;;10401885;28;20205;-79
2023/06/24 16:39:54;;;;;;;3.60;2.15;;;;;28.40;101622.00;;;;10420694;28;20377;-79
2023/06/24 16:44:55;;;;;;;2.42;2.22;;;;;28.30;101628.00;;;;10434647;28;20840;-79
2023/06/24 16:49:56;;;;;;;3.55;2.38;;;;;28.30;101613.00;;;;10413076;28;20205;-79
2023/06/24 16:55:01;;;;;;;3.78;1.80;;;;;28.20;101625.00;;;;10413083;28;20529;-78
2023/06/24 17:00:03;;;;;;;3.78;2.28;;;;;28.10;101612.00;;;;10407768;28;21936;-77
2023/06/24 17:05:06;;;;;;;1.95;1.85;;;;;27.90;101605.00;;;;10434308;28;20207;-78
2023/06/24 17:10:08;;;;;;;2.80;2.28;;;;;27.80;101592.00;;;;10432614;28;20221;-80
2023/06/24 17:15:10;;;;;;;3.00;1.98;;;;;27.80;101598.00;;;;10434822;28;20320;-78
2023/06/24 17:20:11;;;;;;;2.53;1.98;;;;;27.80;101591.00;;;;10433461;28;20208;-79
2023/06/24 17:25:13;;;;;;;2.70;2.03;;;;;27.70;101590.00;;;;10423151;28;21788;-80
2023/06/24 17:30:14;;;;;;;5.85;2.20;;;;;27.60;101585.00;;;;10431714;28;20344;-80
2023/06/24 17:35:16;;;;;;;4.78;2.25;;;;;27.60;101577.00;;;;10430573;28;20246;-79
2023/06/24 17:40:17;;;;;;;3.13;2.00;;;;;27.50;101580.00;;;;10406456;28;20533;-77
2023/06/24 17:45:19;;;;;;;2.65;1.90;;;;;27.40;101575.00;;;;10391543;28;20208;-81
2023/06/24 17:50:21;;;;;;;3.15;2.20;;;;;27.30;101576.00;;;;10403869;28;20233;-79
2023/06/24 17:55:22;;;;;;;3.13;2.13;;;;;27.20;101578.00;;;;10410258;28;20689;-81
2023/06/24 18:00:24;;;;;;;3.25;2.33;;;;;27.10;101573.00;;;;10406782;28;20709;-81
2023/06/24 18:05:25;;;;;;;2.42;1.90;;;;;27.00;101573.00;;;;10418767;28;21966;-79
2023/06/24 18:10:27;;;;;;;2.92;2.47;;;;;27.00;101567.00;;;;10416805;28;20746;-77
2023/06/24 18:15:28;;;;;;;3.80;2.58;;;;;26.80;101567.00;;;;10421683;28;20397;-78
2023/06/24 18:20:29;;;;;;;3.15;1.80;;;;;26.70;101563.00;;;;10423770;28;20213;-78
2023/06/24 18:25:31;;;;;;;4.18;2.17;;;;;26.70;101562.00;;;;10402420;28;20205;-78
2023/06/24 18:30:32;;;;;;;5.85;2.20;;;;;26.60;101562.00;;;;10418109;28;20217;-78
2023/06/24 18:35:34;;;;;;;2.40;2.05;;;;;26.40;101563.00;;;;10405468;28;20307;-78
2023/06/24 18:40:36;;;;;;;2.88;2.30;;;;;26.30;101560.00;;;;10391543;28;20239;-80
2023/06/24 18:45:38;;;;;;;2.65;2.13;;;;;26.10;101559.00;;;;10410070;28;20643;-80
2023/06/24 18:50:39;;;;;;;1.85;1.75;;;;;26.00;101554.00;;;;10421387;28;20221;-79
2023/06/24 18:55:40;;;;;;;2.10;1.90;;;;;25.80;101554.00;;;;10403513;28;20303;-79
2023/06/24 19:00:41;;;;;;;2.67;2.33;;;;;25.60;101548.00;;;;10392860;28;20194;-78
2023/06/24 19:05:43;;;;;;;3.00;2.28;;;;;25.40;101544.00;;;;10425546;28;20229;-78
2023/06/24 19:10:45;;;;;;;2.90;2.28;;;;;25.20;101545.00;;;;10428761;28;20259;-80
2023/06/24 19:15:46;;;;;;;2.88;2.33;;;;;25.10;101535.00;;;;10423601;28;20232;-80
2023/06/24 19:20:48;;;;;;;2.40;2.13;;;;;25.50;101541.00;;;;10384687;28;20244;-78
2023/06/24 19:25:49;;;;;;;4.10;2.38;;;;;25.30;101537.00;;;;10415925;28;20204;-75
2023/06/24 19:30:51;;;;;;;3.63;2.50;;;;;25.10;101532.00;;;;10393267;28;20229;-78
2023/06/24 19:35:55;;;;;;;3.70;2.17;;;;;24.90;101529.00;;;;10411737;28;20201;-79
2023/06/24 19:40:57;;;;;;;4.32;2.25;;;;;24.60;101529.00;;;;10421746;28;20215;-78
2023/06/24 19:45:58;;;;;;;3.78;2.50;;;;;24.20;101523.00;;;;10401777;28;20218;-78
2023/06/24 19:50:59;;;;;;;2.83;2.40;;;;;23.90;101529.00;;;;10393135;28;20221;-79
2023/06/24 19:56:01;;;;;;;4.15;2.35;;;;;23.50;101529.00;;;;10406435;28;20224;-78
2023/06/24 20:01:02;;;;;;;3.53;2.33;;;;;23.30;101524.00;;;;10421140;28;21433;-79
2023/06/24 20:06:04;;;;;;;3.30;2.40;;;;;23.00;101526.00;;;;10418665;28;20328;-77
2023/06/24 20:11:05;;;;;;;2.47;2.08;;;;;22.70;101520.00;;;;10399518;28;20221;-77
2023/06/24 20:16:06;;;;;;;4.03;2.20;;;;;22.50;101530.00;;;;10427933;28;20208;-81
2023/06/24 20:21:13;;;;;;;3.97;1.95;;;;;22.30;101536.00;;;;10434421;28;21108;-77
2023/06/24 20:26:15;;;;;;;6.10;2.15;;;;;22.00;101535.00;;;;10390610;28;20205;-78
2023/06/24 20:31:16;;;;;;;3.67;2.50;;;;;21.90;101526.00;;;;10412941;28;20774;-77
2023/06/24 20:36:18;;;;;;;3.33;2.45;;;;;21.70;101538.00;;;;10400071;28;20335;-78
2023/06/24 20:41:23;;;;;;;3.58;2.95;;;;;21.60;101532.00;;;;10429492;28;20201;-79
2023/06/24 20:46:25;;;;;;;5.38;2.92;;;;;21.40;101533.00;;;;10403466;28;20208;-79
2023/06/24 20:51:30;;;;;;;2.67;2.20;;;;;21.30;101530.00;;;;10420752;28;20225;-78
2023/06/24 20:56:32;;;;;;;3.47;2.38;;;;;21.20;101527.00;;;;10379466;28;20623;-78
2023/06/24 21:01:33;;;;;;;4.05;2.55;;;;;21.10;101523.00;;;;10408254;28;21828;-80
2023/06/24 21:06:35;;;;;;;4.80;3.58;;;;;20.90;101528.00;;;;10390800;28;20211;-79
2023/06/24 21:11:36;;;;;;;6.82;3.55;;;;;20.70;101523.00;;;;10419752;28;20224;-80
2023/06/24 21:16:38;;;;;;;3.78;2.72;;;;;20.50;101519.00;;;;10407279;28;20315;-78
2023/06/24 21:21:39;;;;;;;7.03;3.65;;;;;20.30;101528.00;;;;10424238;28;20351;-79
2023/06/24 21:26:41;;;;;;;5.18;3.58;;;;;20.30;101528.00;;;;10391484;28;20193;-81
2023/06/24 21:31:42;;;;;;;5.85;3.42;;;;;20.30;101528.00;;;;10403262;28;20225;-80
2023/06/24 21:36:44;;;;;;;7.50;4.45;;;;;20.20;101526.00;;;;10399697;28;20200;-80
2023/06/24 21:41:45;;;;;;;8.10;5.10;;;;;20.10;101526.00;;;;10408472;28;20232;-78
2023/06/24 21:46:47;;;;;;;7.80;5.07;;;;;20.00;101532.00;;;;10410742;28;20288;-79
2023/06/24 21:51:51;;;;;;;8.30;4.75;;;;;19.80;101531.00;;;;10407454;28;20278;-80
2023/06/24 21:56:52;;;;;;;5.75;5.15;;;;;19.70;101527.00;;;;10410072;28;20205;-78
2023/06/24 22:01:54;;;;;;;6.00;5.25;;;;;19.70;101530.00;;;;10384313;28;20213;-80
2023/06/24 22:06:55;;;;;;;10.27;5.53;;;;;19.60;101524.00;;;;10419160;28;20209;-77
2023/06/24 22:11:57;;;;;;;5.93;5.18;;;;;19.50;101534.00;;;;10419145;28;20313;-77
2023/06/24 22:17:04;;;;;;;8.13;5.95;;;;;19.40;101522.00;;;;10411271;28;20211;-77
2023/06/24 22:22:06;;;;;;;6.85;6.15;;;;;19.30;101530.00;;;;10435382;28;20216;-78
2023/06/24 22:27:08;;;;;;;7.50;6.05;;;;;19.30;101518.00;;;;10432503;28;20205;-78
2023/06/24 22:32:09;;;;;;;8.95;5.95;;;;;19.20;101511.00;;;;10423543;28;20941;-82
2023/06/24 22:37:13;;;;;;;8.55;6.30;;;;;19.10;101509.00;;;;10449674;28;20893;-82
2023/06/24 22:42:14;;;;;;;8.57;5.53;;;;;19.00;101521.00;;;;10419226;28;20222;-84
2023/06/24 22:47:16;;;;;;;11.60;5.93;;;;;18.90;101523.00;;;;10440121;28;20230;-76
2023/06/24 22:52:17;;;;;;;6.97;6.28;;;;;18.90;101521.00;;;;10433310;28;20228;-79
2023/06/24 22:57:19;;;;;;;9.73;6.45;;;;;18.80;101519.00;;;;10440440;28;20216;-80
2023/06/24 23:02:21;;;;;;;8.18;6.57;;;;;18.70;101512.00;;;;10441761;28;20212;-79
2023/06/24 23:07:24;;;;;;;12.15;6.47;;;;;18.70;101521.00;;;;10419483;28;20204;-80
2023/06/24 23:12:27;;;;;;;8.32;5.82;;;;;18.60;101521.00;;;;10423134;28;20224;-80
2023/06/24 23:17:29;;;;;;;6.18;5.53;;;;;18.50;101529.00;;;;10445078;28;20213;-79
2023/06/24 23:22:31;;;;;;;10.40;6.32;;;;;18.40;101524.00;;;;10437244;28;20292;-79
2023/06/24 23:27:36;;;;;;;7.40;6.60;;;;;18.30;101518.00;;;;10439977;28;20253;-79
2023/06/24 23:32:39;;;;;;;13.57;6.43;;;;;18.30;101513.00;;;;10439354;28;21864;-81
2023/06/24 23:37:40;;;;;;;8.88;6.72;;;;;18.20;101503.00;;;;10442068;28;21765;-81
2023/06/24 23:42:42;;;;;;;10.93;7.57;;;;;18.20;101499.00;;;;10445013;28;20288;-79
2023/06/24 23:47:44;;;;;;;10.73;8.23;;;;;18.10;101496.00;;;;10440028;28;20212;-77
2023/06/24 23:52:45;;;;;;;14.07;7.97;;;;;18.00;101484.00;;;;10438373;28;20217;-78
2023/06/24 23:57:46;;;;;;;8.38;7.38;;;;;17.90;101483.00;;;;10429094;28;20961;-78
